Alcova, Wyoming
Current Conditions -  °F | °C
As of 6:53 AM on Friday 28 Nov 2014 (Local Time) from KCPR Reporting Station
Clear Clear  
Wind Chill: 36°   Ceiling: Unl
Heat Index: 43°   Visibility: 10mi
Dew Point: 21°   Wind: 15mph
Humidity: 42%   Direction: 230°SW
Pressure: 29.87"   Gusts: NA
Location:  42.55°N, 106.72°W
Report Text: KCPR 281353Z 23013KT 10SM CLR 06/M06 A2987 RMK AO2 SLP103 T00611061
Loading
Personal Weather Stations






























Interactive Weather Map New forecast layout! Learn more

10-Day Weather Forecast

Advertisements
Track Severe Weather on mobile